Hot Springs, South Dakota
Current Conditions -  °F | °C
As of 11:53 AM on Friday 31 Oct 2014 (Local Time) from KCUT Reporting Station
Clear Clear  
Wind Chill: 38°   Ceiling: Unl
Heat Index: 43°   Visibility: 10mi
Dew Point: 26°   Wind: 9mph
Humidity: 51%   Direction: 190°S
Pressure: 30.23"   Gusts: 20mph
Location:  43.43°N, 103.47°W
Report Text: KCUT 311753Z AUTO 19008G17KT 150V230 10SM CLR 06/M03 A3023 RMK AO2 SLP249 I6002 T00611033 10061 21028 56025
Loading
Personal Weather Stations






























Interactive Weather Map
Tropical Storm Tracking
New forecast layout! Learn more

10-Day Weather Forecast

Advertisements
Track Severe Weather on mobile